Time;durP1;ratioP1;P1;durP2;ratioP2;P2;SDS_P1;SDS_P2;PMS_P1;PMS_P2;Temp;Humidity;BMP_temperature;BMP_pressure;BME280_temperature;BME280_humidity;BME280_pressure;Samples;Min_cycle;Max_cycle;Signal;HPM_P1;HPM_P2
2023/11/27 00:01:43;;;;;;;0.98;0.68;;;;;;;-3.06;63.84;93508.91;4871495;29;20028;-78
2023/11/27 00:04:09;;;;;;;0.77;0.50;;;;;;;-3.04;63.40;93522.50;4871444;29;20336;-79
2023/11/27 00:06:34;;;;;;;1.48;0.73;;;;;;;-3.02;63.08;93491.78;4871484;29;20230;-78
2023/11/27 00:09:00;;;;;;;2.28;1.20;;;;;;;-2.97;64.23;93498.09;4871295;29;20074;-79
2023/11/27 00:11:25;;;;;;;2.78;0.80;;;;;;;-3.02;63.58;93491.78;4871230;29;20335;-79
2023/11/27 00:13:51;;;;;;;3.33;0.80;;;;;;;-3.08;63.64;93510.97;4871017;29;20335;-79
2023/11/27 00:16:16;;;;;;;1.85;0.82;;;;;;;-3.00;63.68;93530.66;4871257;29;20033;-79
2023/11/27 00:18:46;;;;;;;0.70;0.60;;;;;;;-3.00;62.03;93524.66;4870339;29;20040;-79
2023/11/27 00:21:13;;;;;;;2.75;0.98;;;;;;;-3.02;62.05;93485.78;4871275;29;20057;-79
2023/11/27 00:23:38;;;;;;;2.22;0.95;;;;;;;-3.05;64.38;93520.94;4871043;29;20052;-79
2023/11/27 00:26:04;;;;;;;1.85;1.15;;;;;;;-3.03;62.55;93518.91;4871985;29;20037;-79
2023/11/27 00:28:30;;;;;;;7.45;1.02;;;;;;;-3.08;63.64;93538.88;4870390;29;20038;-78
2023/11/27 00:30:55;;;;;;;1.52;0.82;;;;;;;-3.08;64.73;93572.78;4870784;29;20074;-79
2023/11/27 00:33:20;;;;;;;1.00;0.50;;;;;;;-3.07;64.35;93556.91;4870517;29;20029;-79
2023/11/27 00:35:46;;;;;;;1.20;0.77;;;;;;;-3.05;63.14;93544.41;4870495;29;20108;-79
2023/11/27 00:38:12;;;;;;;0.90;0.60;;;;;;;-3.11;64.15;93537.53;4871579;29;20331;-78
2023/11/27 00:40:37;;;;;;;1.27;0.75;;;;;;;-3.06;63.96;93548.03;4871725;29;20238;-80
2023/11/27 00:43:04;;;;;;;1.60;0.80;;;;;;;-3.09;64.04;93548.53;4871668;29;20124;-79
2023/11/27 00:45:31;;;;;;;3.10;0.88;;;;;;;-3.06;63.15;93552.47;4871491;29;20117;-80
2023/11/27 00:47:59;;;;;;;3.65;0.60;;;;;;;-3.09;64.08;93564.16;4871344;29;20030;-79
2023/11/27 00:50:25;;;;;;;1.38;0.50;;;;;;;-3.01;62.48;93568.22;4871435;29;20065;-78
2023/11/27 00:52:50;;;;;;;1.33;0.75;;;;;;;-3.05;61.96;93580.91;4871195;29;20112;-79
2023/11/27 00:55:16;;;;;;;1.98;0.60;;;;;;;-3.08;64.74;93572.78;4871305;29;20032;-79
2023/11/27 00:57:41;;;;;;;0.60;0.47;;;;;;;-3.10;64.01;93556.56;4871468;29;20048;-78
2023/11/27 01:00:10;;;;;;;1.92;0.98;;;;;;;-3.16;65.84;93586.97;4871895;29;20089;-78
2023/11/27 01:02:37;;;;;;;1.70;0.77;;;;;;;-3.20;65.78;93577.25;4871823;29;20323;-79
2023/11/27 01:05:03;;;;;;;0.70;0.60;;;;;;;-3.21;67.05;93573.88;4871333;29;20025;-79
2023/11/27 01:07:29;;;;;;;0.98;0.50;;;;;;;-3.18;66.39;93588.25;4871041;29;20096;-78
2023/11/27 01:09:55;;;;;;;1.58;1.10;;;;;;;-3.16;66.49;93589.56;4870797;29;20025;-78
2023/11/27 01:12:21;;;;;;;1.85;0.52;;;;;;;-3.07;66.16;93592.63;4869905;29;20227;-78
2023/11/27 01:14:46;;;;;;;2.67;0.77;;;;;;;-3.05;66.42;93612.22;4870681;29;20048;-79
2023/11/27 01:17:11;;;;;;;1.00;0.55;;;;;;;-3.02;65.56;93603.13;4871139;29;20029;-78
2023/11/27 01:19:38;;;;;;;1.83;1.02;;;;;;;-2.96;63.49;93577.91;4870949;29;20265;-79
2023/11/27 01:22:04;;;;;;;1.02;0.77;;;;;;;-2.93;62.85;93585.25;4870913;29;20224;-80
2023/11/27 01:24:29;;;;;;;1.05;0.75;;;;;;;-2.90;64.62;93576.97;4870635;29;20100;-80
2023/11/27 01:26:55;;;;;;;1.45;0.80;;;;;;;-2.87;63.42;93603.38;4869520;29;20045;-79
2023/11/27 01:29:23;;;;;;;2.80;0.70;;;;;;;-2.89;63.42;93599.41;4869395;29;20045;-80
2023/11/27 01:31:49;;;;;;;1.33;0.70;;;;;;;-2.91;62.79;93593.63;4870627;29;20330;-79
2023/11/27 01:34:15;;;;;;;2.42;0.95;;;;;;;-2.90;62.49;93545.69;4870584;29;20025;-79
2023/11/27 01:36:43;;;;;;;0.85;0.60;;;;;;;-2.93;63.75;93559.19;4870781;29;20025;-79
2023/11/27 01:39:09;;;;;;;1.85;0.90;;;;;;;-2.89;62.23;93578.53;4870417;29;20025;-79
2023/11/27 01:41:35;;;;;;;1.52;0.60;;;;;;;-2.91;63.46;93570.16;4870636;29;20048;-79
2023/11/27 01:44:01;;;;;;;1.85;0.77;;;;;;;-2.91;62.56;93575.38;4870354;29;20029;-79
2023/11/27 01:46:27;;;;;;;2.08;0.70;;;;;;;-2.95;62.36;93567.25;4870534;29;20338;-79
2023/11/27 01:48:53;;;;;;;1.45;0.80;;;;;;;-2.98;63.58;93553.91;4870624;29;20260;-79
2023/11/27 01:51:21;;;;;;;1.35;0.60;;;;;;;-2.95;64.09;93576.88;4870528;29;20092;-79
2023/11/27 01:53:48;;;;;;;1.40;0.68;;;;;;;-2.99;64.26;93566.16;4869920;29;20052;-79
2023/11/27 01:56:15;;;;;;;1.25;0.60;;;;;;;-2.98;64.41;93582.59;4870569;29;20195;-79
2023/11/27 01:58:41;;;;;;;1.48;0.85;;;;;;;-2.96;65.22;93593.56;4870108;29;20017;-79
2023/11/27 02:01:08;;;;;;;1.10;0.45;;;;;;;-3.00;65.48;93571.59;4870567;29;20260;-80
2023/11/27 02:03:33;;;;;;;1.48;0.70;;;;;;;-2.99;64.40;93578.38;4870403;29;20065;-80
2023/11/27 02:05:59;;;;;;;0.98;0.60;;;;;;;-2.94;64.17;93594.13;4870310;29;20374;-80
2023/11/27 02:08:24;;;;;;;0.90;0.50;;;;;;;-2.92;64.75;93573.81;4870371;29;20241;-80
2023/11/27 02:10:52;;;;;;;1.45;0.60;;;;;;;-2.92;63.86;93563.38;4870455;29;20036;-80
2023/11/27 02:13:18;;;;;;;0.93;0.47;;;;;;;-2.91;65.06;93586.63;4870462;29;20208;-80
2023/11/27 02:15:43;;;;;;;0.95;0.68;;;;;;;-2.94;64.87;93620.19;4870187;29;20095;-78
2023/11/27 02:18:09;;;;;;;0.68;0.47;;;;;;;-2.95;64.19;93582.09;4869969;29;20101;-79
2023/11/27 02:20:34;;;;;;;0.47;0.40;;;;;;;-2.95;64.54;93571.66;4870415;29;20018;-80
2023/11/27 02:23:00;;;;;;;0.65;0.43;;;;;;;-2.97;64.22;93553.66;4870102;29;20212;-78
2023/11/27 02:25:26;;;;;;;1.02;0.60;;;;;;;-2.93;63.46;93590.47;4869942;29;20029;-79
2023/11/27 02:27:52;;;;;;;3.40;0.60;;;;;;;-2.87;63.00;93620.84;4869982;29;20025;-78
2023/11/27 02:30:20;;;;;;;1.58;0.70;;;;;;;-2.90;61.96;93606.44;4870102;29;20294;-79
2023/11/27 02:32:47;;;;;;;3.60;0.77;;;;;;;-2.85;62.99;93592.69;4869928;29;20036;-79
2023/11/27 02:35:13;;;;;;;0.30;0.30;;;;;;;-2.81;62.50;93596.41;4870148;29;20312;-79
2023/11/27 02:37:38;;;;;;;0.70;0.50;;;;;;;-2.82;62.56;93602.66;4870219;29;20113;-80
2023/11/27 02:40:05;;;;;;;0.40;0.40;;;;;;;-2.87;63.71;93579.09;4869213;29;20041;-80
2023/11/27 02:42:30;;;;;;;2.92;0.98;;;;;;;-2.87;63.58;93598.16;4872770;29;20070;-80
2023/11/27 02:44:56;;;;;;;2.00;0.88;;;;;;;-2.87;64.37;93592.94;4871668;29;20104;-79
2023/11/27 02:47:22;;;;;;;2.15;0.88;;;;;;;-2.90;64.40;93597.84;4873457;29;20070;-79
2023/11/27 02:49:48;;;;;;;1.48;0.85;;;;;;;-2.91;64.88;93594.44;4872434;29;20316;-80
2023/11/27 02:52:14;;;;;;;1.15;0.93;;;;;;;-2.86;65.50;93584.09;4873398;29;20044;-80
2023/11/27 02:54:39;;;;;;;1.00;0.60;;;;;;;-2.87;66.21;93599.97;4873153;29;20043;-80
2023/11/27 02:57:05;;;;;;;2.17;0.77;;;;;;;-2.95;66.20;93579.50;4873498;29;20045;-79
2023/11/27 02:59:31;;;;;;;1.15;0.70;;;;;;;-3.01;67.74;93591.69;4873180;29;20031;-79
2023/11/27 03:01:56;;;;;;;2.33;0.77;;;;;;;-2.98;68.00;93612.06;4873000;29;20030;-80
2023/11/27 03:04:25;;;;;;;0.93;0.50;;;;;;;-3.00;68.92;93592.47;4872821;29;20193;-80
2023/11/27 03:06:51;;;;;;;1.95;0.80;;;;;;;-2.96;69.41;93588.34;4871710;29;20034;-80
2023/11/27 03:09:17;;;;;;;1.08;0.60;;;;;;;-2.92;68.92;93590.25;4873082;29;20029;-79
2023/11/27 03:11:42;;;;;;;1.83;0.90;;;;;;;-2.89;67.18;93592.41;4872010;29;20029;-81
2023/11/27 03:14:08;;;;;;;1.35;0.77;;;;;;;-2.88;67.06;93616.66;4873086;29;20026;-79
2023/11/27 03:16:33;;;;;;;0.73;0.38;;;;;;;-2.89;66.56;93594.19;4873016;29;20025;-79
2023/11/27 03:18:59;;;;;;;0.90;0.45;;;;;;;-2.87;67.01;93606.00;4872770;29;20028;-79
2023/11/27 03:21:24;;;;;;;1.83;0.80;;;;;;;-2.78;67.73;93600.38;4872915;29;20036;-79
2023/11/27 03:23:50;;;;;;;0.88;0.52;;;;;;;-2.73;66.37;93596.03;4872742;29;20025;-79
2023/11/27 03:26:16;;;;;;;1.17;0.68;;;;;;;-2.67;65.64;93608.13;4872787;29;20030;-79
2023/11/27 03:28:42;;;;;;;1.50;0.85;;;;;;;-2.64;65.45;93602.44;4872783;29;20034;-80
2023/11/27 03:31:09;;;;;;;0.98;0.60;;;;;;;-2.61;65.02;93629.88;4872568;29;20104;-80
2023/11/27 03:33:34;;;;;;;0.80;0.60;;;;;;;-2.54;64.33;93640.19;4873180;29;20259;-80
2023/11/27 03:36:00;;;;;;;1.38;0.60;;;;;;;-2.51;64.29;93610.97;4872800;29;20037;-80
2023/11/27 03:38:25;;;;;;;1.10;0.68;;;;;;;-2.53;63.05;93632.09;4871828;29;20319;-80
2023/11/27 03:40:51;;;;;;;1.70;0.70;;;;;;;-2.46;62.78;93630.13;4872853;29;20040;-80
2023/11/27 03:43:16;;;;;;;1.08;0.63;;;;;;;-2.44;61.05;93622.06;4872545;29;20319;-80
2023/11/27 03:45:42;;;;;;;0.65;0.52;;;;;;;-2.33;60.44;93610.72;4872775;29;20034;-80
2023/11/27 03:48:07;;;;;;;2.67;0.57;;;;;;;-2.32;60.48;93609.72;4872618;29;20311;-80
2023/11/27 03:50:33;;;;;;;2.10;0.80;;;;;;;-2.34;59.43;93606.56;4872712;29;20085;-80
2023/11/27 03:52:59;;;;;;;2.67;0.60;;;;;;;-2.27;58.99;93601.94;4872340;29;20362;-81
2023/11/27 03:55:26;;;;;;;0.73;0.43;;;;;;;-2.29;60.10;93598.78;4872522;29;20075;-81
2023/11/27 03:57:51;;;;;;;1.27;0.70;;;;;;;-2.30;58.96;93605.03;4873707;29;20029;-80
2023/11/27 04:00:17;;;;;;;0.68;0.40;;;;;;;-2.29;60.09;93630.09;4872542;29;20036;-82
2023/11/27 04:02:46;;;;;;;0.70;0.57;;;;;;;-2.33;59.63;93605.50;4872452;29;20022;-81
2023/11/27 04:05:11;;;;;;;1.92;0.90;;;;;;;-2.33;60.38;93621.19;4872597;29;20038;-81
2023/11/27 04:07:37;;;;;;;1.65;0.88;;;;;;;-2.32;59.84;93614.94;4873175;29;20033;-81
2023/11/27 04:10:05;;;;;;;1.20;0.80;;;;;;;-2.26;59.92;93628.84;4872669;29;20314;-81
2023/11/27 04:12:33;;;;;;;1.35;0.80;;;;;;;-2.28;59.89;93630.88;4871365;29;20129;-81
2023/11/27 04:14:59;;;;;;;7.43;1.13;;;;;;;-2.41;61.29;93645.06;4872516;29;20048;-80
2023/11/27 04:17:25;;;;;;;2.00;1.30;;;;;;;-2.30;61.25;93627.72;4872115;29;20025;-81
2023/11/27 04:19:51;;;;;;;1.10;0.70;;;;;;;-2.37;60.82;93617.47;4872264;29;20329;-80
2023/11/27 04:22:16;;;;;;;2.55;1.17;;;;;;;-2.40;61.82;93651.06;4872328;29;20029;-81
2023/11/27 04:24:42;;;;;;;1.73;0.95;;;;;;;-2.36;60.69;93655.59;4872017;29;20120;-81
2023/11/27 04:27:08;;;;;;;1.23;0.80;;;;;;;-2.38;61.63;93642.00;4871902;29;20025;-81
2023/11/27 04:29:34;;;;;;;2.33;0.93;;;;;;;-2.40;62.01;93638.84;4871927;29;20342;-81
2023/11/27 04:32:00;;;;;;;3.33;1.02;;;;;;;-2.40;61.46;93648.47;4871846;29;20030;-81
2023/11/27 04:34:26;;;;;;;1.20;0.90;;;;;;;-2.43;62.17;93668.00;4871051;29;20169;-81
2023/11/27 04:36:52;;;;;;;2.13;1.15;;;;;;;-2.39;62.01;93645.63;4870802;29;20231;-79
2023/11/27 04:39:18;;;;;;;1.27;0.93;;;;;;;-2.42;61.32;93648.72;4871056;29;20093;-81
2023/11/27 04:41:44;;;;;;;2.13;1.23;;;;;;;-2.42;61.97;93665.16;4871078;29;20249;-81
2023/11/27 04:44:10;;;;;;;2.03;1.25;;;;;;;-2.50;61.83;93646.50;4870972;29;20037;-80
2023/11/27 04:46:35;;;;;;;2.33;1.45;;;;;;;-2.46;62.22;93656.22;4870779;29;20093;-81
2023/11/27 04:49:01;;;;;;;1.50;1.00;;;;;;;-2.43;62.31;93671.41;4870937;29;20032;-81
2023/11/27 04:51:27;;;;;;;0.88;0.60;;;;;;;-2.46;61.56;93668.50;4870831;29;20032;-82
2023/11/27 04:53:53;;;;;;;1.67;0.80;;;;;;;-2.46;61.16;93671.88;4870532;29;20038;-82
2023/11/27 04:56:18;;;;;;;3.92;0.90;;;;;;;-2.42;61.67;93664.38;4870718;29;20036;-80
2023/11/27 04:58:44;;;;;;;2.00;0.85;;;;;;;-2.43;61.43;93671.41;4869680;29;20077;-81
2023/11/27 05:01:09;;;;;;;2.15;0.77;;;;;;;-2.40;59.98;93664.94;4870804;29;20036;-80
2023/11/27 05:03:35;;;;;;;2.37;1.00;;;;;;;-2.44;60.55;93680.28;4870978;29;20111;-81
2023/11/27 05:06:01;;;;;;;1.15;0.77;;;;;;;-2.48;61.42;93678.38;4870965;29;20036;-81
2023/11/27 05:08:26;;;;;;;2.60;0.80;;;;;;;-2.52;60.42;93672.03;4871253;29;20032;-80
2023/11/27 05:10:52;;;;;;;1.95;0.90;;;;;;;-2.47;61.13;93679.94;4869828;29;20300;-80
2023/11/27 05:13:17;;;;;;;0.80;0.52;;;;;;;-2.55;61.27;93660.25;4870825;29;20324;-80
2023/11/27 05:15:43;;;;;;;2.45;0.85;;;;;;;-2.53;60.58;93681.66;4871042;29;20050;-80
2023/11/27 05:18:08;;;;;;;1.58;1.00;;;;;;;-2.53;59.83;93704.38;4871061;29;20045;-80
2023/11/27 05:20:34;;;;;;;1.77;0.85;;;;;;;-2.48;59.49;93694.03;4870823;29;20034;-79
2023/11/27 05:23:01;;;;;;;1.00;0.52;;;;;;;-2.46;61.54;93708.44;4870514;29;20037;-81
2023/11/27 05:25:27;;;;;;;1.45;0.68;;;;;;;-2.51;61.13;93676.22;4871046;29;20030;-81
2023/11/27 05:27:53;;;;;;;0.73;0.50;;;;;;;-2.57;59.78;93703.25;4871009;29;20367;-80
2023/11/27 05:30:19;;;;;;;5.22;0.90;;;;;;;-2.55;59.59;93688.94;4871014;29;20249;-80
2023/11/27 05:32:45;;;;;;;1.50;0.75;;;;;;;-2.51;60.15;93687.44;4872642;29;20327;-81
2023/11/27 05:35:10;;;;;;;0.82;0.50;;;;;;;-2.56;58.40;93700.44;4871727;29;20045;-80
2023/11/27 05:37:36;;;;;;;0.85;0.55;;;;;;;-2.63;59.49;93731.91;4870873;29;20272;-81
2023/11/27 05:40:03;;;;;;;3.78;0.60;;;;;;;-2.69;60.05;93705.94;4871738;29;20105;-81
2023/11/27 05:42:31;;;;;;;1.67;0.70;;;;;;;-2.71;60.40;93703.53;4871862;29;20029;-82
2023/11/27 05:44:59;;;;;;;0.63;0.50;;;;;;;-2.70;60.54;93726.00;4869894;29;20026;-82
2023/11/27 05:47:25;;;;;;;1.13;0.55;;;;;;;-2.65;60.41;93720.09;4871099;29;20032;-82
2023/11/27 05:49:52;;;;;;;1.30;0.52;;;;;;;-2.74;61.28;93716.28;4869864;29;20196;-82
2023/11/27 05:52:17;;;;;;;0.65;0.43;;;;;;;-2.67;61.47;93743.78;4869907;29;20037;-82
2023/11/27 05:54:43;;;;;;;1.00;0.50;;;;;;;-2.67;60.34;93753.44;4870529;29;20045;-82
2023/11/27 05:57:09;;;;;;;0.65;0.40;;;;;;;-2.64;59.98;93722.47;4870761;29;20036;-82
2023/11/27 05:59:34;;;;;;;0.88;0.38;;;;;;;-2.64;59.87;93745.94;4869526;29;20047;-82
2023/11/27 06:02:00;;;;;;;1.05;0.70;;;;;;;-2.58;59.92;93693.88;4870919;29;20069;-82
2023/11/27 06:04:26;;;;;;;0.75;0.50;;;;;;;-2.64;59.43;93738.13;4870890;29;20279;-82
2023/11/27 06:06:52;;;;;;;1.25;0.60;;;;;;;-2.63;60.31;93734.50;4870796;29;20038;-81
2023/11/27 06:09:18;;;;;;;1.50;0.68;;;;;;;-2.59;61.77;93754.91;4869289;29;20387;-80
2023/11/27 06:11:43;;;;;;;1.00;0.50;;;;;;;-2.65;60.81;93762.63;4870160;29;20032;-80
2023/11/27 06:14:09;;;;;;;2.38;0.70;;;;;;;-2.67;62.45;93737.78;4870259;29;20077;-80
2023/11/27 06:16:34;;;;;;;0.90;0.50;;;;;;;-2.66;60.98;93748.00;4871617;29;20030;-81
2023/11/27 06:19:00;;;;;;;0.30;0.30;;;;;;;-2.69;61.35;93740.63;4873864;29;20323;-80
2023/11/27 06:21:26;;;;;;;0.82;0.50;;;;;;;-2.67;60.75;93733.34;4873811;29;20032;-80
2023/11/27 06:23:51;;;;;;;0.93;0.52;;;;;;;-2.68;60.17;93741.44;4872599;29;20283;-80
2023/11/27 06:26:17;;;;;;;0.93;0.40;;;;;;;-2.67;60.07;93725.53;4873727;29;20283;-82
2023/11/27 06:28:43;;;;;;;0.98;0.50;;;;;;;-2.57;59.74;93705.88;4873640;29;20045;-81
2023/11/27 06:31:09;;;;;;;0.70;0.50;;;;;;;-2.55;58.82;93680.34;4873551;29;20025;-81
2023/11/27 06:33:35;;;;;;;2.13;0.45;;;;;;;-2.58;59.45;93719.97;4873739;29;20025;-78
2023/11/27 06:36:00;;;;;;;1.73;0.70;;;;;;;-2.58;59.80;93720.75;4873221;29;20073;-78
2023/11/27 06:38:26;;;;;;;0.45;0.40;;;;;;;-2.52;58.59;93721.63;4872977;29;20026;-78
2023/11/27 06:40:52;;;;;;;0.70;0.40;;;;;;;-2.56;58.44;93734.34;4873455;29;21452;-83
2023/11/27 06:43:17;;;;;;;1.45;0.70;;;;;;;-2.54;58.49;93742.75;4872465;29;20109;-77
2023/11/27 06:45:43;;;;;;;3.33;0.60;;;;;;;-2.48;57.26;93741.00;4871910;29;20193;-77
2023/11/27 06:48:08;;;;;;;0.90;0.55;;;;;;;-2.46;57.52;93768.47;4872981;29;20061;-76
2023/11/27 06:50:34;;;;;;;2.25;0.55;;;;;;;-2.48;57.65;93752.25;4872062;29;20308;-77
2023/11/27 06:52:59;;;;;;;0.88;0.52;;;;;;;-2.42;56.97;93776.63;4872885;29;20103;-77
2023/11/27 06:55:25;;;;;;;1.20;0.68;;;;;;;-2.36;58.60;93775.69;4872477;29;20022;-77
2023/11/27 06:57:50;;;;;;;2.08;0.75;;;;;;;-2.28;56.97;93764.84;4873030;29;20056;-77
2023/11/27 07:00:17;;;;;;;1.73;0.40;;;;;;;-2.29;56.75;93749.41;4872781;29;20032;-77
2023/11/27 07:02:42;;;;;;;0.85;0.57;;;;;;;-2.31;55.36;93752.25;4872737;29;20033;-77
2023/11/27 07:05:09;;;;;;;1.10;0.50;;;;;;;-2.21;54.37;93741.19;4872639;29;20052;-78
2023/11/27 07:07:35;;;;;;;1.10;0.40;;;;;;;-2.24;54.08;93763.34;4872944;29;20041;-78
2023/11/27 07:10:02;;;;;;;0.90;0.55;;;;;;;-2.18;52.93;93787.72;4872644;29;20031;-77
2023/11/27 07:12:27;;;;;;;0.55;0.30;;;;;;;-2.21;55.10;93777.75;4872648;29;20356;-78
2023/11/27 07:14:53;;;;;;;0.50;0.45;;;;;;;-2.22;54.75;93795.25;4872719;29;20372;-78
2023/11/27 07:17:20;;;;;;;0.60;0.43;;;;;;;-2.18;53.09;93777.28;4871310;29;20383;-77
2023/11/27 07:19:46;;;;;;;2.38;1.30;;;;;;;-2.10;53.47;93789.16;4872382;29;20049;-77
2023/11/27 07:22:11;;;;;;;0.68;0.50;;;;;;;-2.09;51.73;93754.19;4872110;29;20219;-77
2023/11/27 07:24:37;;;;;;;0.65;0.40;;;;;;;-2.02;52.18;93775.69;4872409;29;20097;-77
2023/11/27 07:27:04;;;;;;;1.35;0.85;;;;;;;-2.02;52.44;93760.81;4871874;29;20028;-77
2023/11/27 07:29:29;;;;;;;0.80;0.50;;;;;;;-1.97;51.83;93760.13;4872235;29;20219;-77
2023/11/27 07:31:55;;;;;;;1.45;0.25;;;;;;;-1.94;50.75;93740.56;4872266;29;20096;-77
2023/11/27 07:34:21;;;;;;;0.50;0.47;;;;;;;-2.02;53.11;93762.66;4872371;29;20197;-79
2023/11/27 07:36:47;;;;;;;0.63;0.60;;;;;;;-1.96;53.11;93773.97;4872322;29;20028;-77
2023/11/27 07:39:13;;;;;;;1.95;0.68;;;;;;;-1.97;56.12;93757.50;4872375;29;20223;-83
2023/11/27 07:41:38;;;;;;;0.40;0.32;;;;;;;-2.02;54.83;93773.09;4871615;29;20104;-78
2023/11/27 07:44:04;;;;;;;0.40;0.40;;;;;;;-2.02;54.06;93766.03;4871375;29;20035;-80
2023/11/27 07:46:30;;;;;;;1.10;0.73;;;;;;;-2.06;55.33;93772.78;4872238;29;20045;-77
2023/11/27 07:48:56;;;;;;;1.65;0.40;;;;;;;-2.07;55.62;93755.53;4871215;29;20053;-80
2023/11/27 07:51:22;;;;;;;0.57;0.40;;;;;;;-2.09;56.20;93775.09;4871411;29;20048;-78
2023/11/27 07:53:48;;;;;;;2.63;0.63;;;;;;;-2.01;54.51;93777.31;4870888;29;20249;-78
2023/11/27 07:56:23;;;;;;;1.25;0.75;;;;;;;-2.07;55.97;93773.03;4870265;29;20033;-78
2023/11/27 07:58:49;;;;;;;1.05;0.50;;;;;;;-2.04;55.17;93765.50;4871634;29;20037;-78
2023/11/27 08:01:16;;;;;;;6.90;0.38;;;;;;;-2.04;55.58;93768.09;4871576;29;20109;-78
2023/11/27 08:03:41;;;;;;;1.67;0.65;;;;;;;-2.05;54.94;93737.81;4871552;29;20037;-79
2023/11/27 08:06:09;;;;;;;1.55;0.60;;;;;;;-2.02;56.00;93770.47;4870878;29;20094;-78
2023/11/27 08:08:34;;;;;;;0.80;0.40;;;;;;;-1.98;55.18;93770.81;4869972;29;20021;-78
2023/11/27 08:11:00;;;;;;;0.90;0.50;;;;;;;-1.90;53.89;93789.47;4868777;29;20028;-78
2023/11/27 08:13:25;;;;;;;0.40;0.32;;;;;;;-1.89;55.25;93766.78;4869927;29;20050;-78
2023/11/27 08:15:52;;;;;;;1.30;0.60;;;;;;;-1.88;55.75;93797.09;4870293;29;20021;-78
2023/11/27 08:18:19;;;;;;;0.68;0.47;;;;;;;-1.86;55.03;93790.59;4870766;29;20045;-78
2023/11/27 08:20:45;;;;;;;0.75;0.40;;;;;;;-1.78;55.10;93792.03;4870940;29;20089;-78
2023/11/27 08:23:12;;;;;;;0.63;0.45;;;;;;;-1.63;51.86;93791.47;4871274;29;20017;-78
2023/11/27 08:25:41;;;;;;;3.00;0.77;;;;;;;-1.55;53.42;93796.28;4871388;29;20040;-77
2023/11/27 08:28:07;;;;;;;0.40;0.30;;;;;;;-1.58;52.84;93773.25;4871306;29;20025;-78
2023/11/27 08:30:32;;;;;;;1.05;0.47;;;;;;;-1.43;51.89;93778.69;4871361;29;20029;-78
2023/11/27 08:32:58;;;;;;;1.70;0.30;;;;;;;-1.27;49.92;93794.59;4870971;29;20029;-78
2023/11/27 08:35:24;;;;;;;0.90;0.50;;;;;;;-1.19;51.28;93806.47;4870916;29;20027;-78
2023/11/27 08:37:49;;;;;;;0.88;0.60;;;;;;;-1.11;51.10;93791.16;4871012;29;20045;-78
2023/11/27 08:40:16;;;;;;;1.08;0.52;;;;;;;-1.04;50.64;93812.72;4870451;29;20056;-78
2023/11/27 08:42:41;;;;;;;1.08;0.60;;;;;;;-0.93;51.90;93789.28;4870995;29;20069;-78
2023/11/27 08:45:15;;;;;;;2.20;0.47;;;;;;;-0.90;50.14;93828.03;4871009;29;20033;-78
2023/11/27 08:47:44;;;;;;;0.82;0.70;;;;;;;-0.93;52.86;93813.63;4870989;29;20231;-78
2023/11/27 08:50:13;;;;;;;1.55;0.65;;;;;;;-0.92;49.92;93804.72;4870861;29;20029;-78
2023/11/27 08:52:41;;;;;;;5.43;0.70;;;;;;;-0.87;52.24;93796.97;4870707;29;20113;-77
2023/11/27 08:55:08;;;;;;;1.45;0.60;;;;;;;-0.78;51.42;93802.53;4870986;29;20174;-78
2023/11/27 08:57:34;;;;;;;1.95;0.88;;;;;;;-0.72;50.52;93793.72;4871096;29;20030;-78
2023/11/27 09:00:05;;;;;;;1.67;0.70;;;;;;;-0.66;49.72;93792.75;4870855;29;20025;-78
2023/11/27 09:02:31;;;;;;;1.58;0.88;;;;;;;-0.60;49.41;93790.97;4870328;29;20197;-78
2023/11/27 09:04:57;;;;;;;2.70;0.50;;;;;;;-0.53;48.74;93823.00;4870566;29;20033;-78
2023/11/27 09:07:23;;;;;;;0.60;0.38;;;;;;;-0.46;49.01;93770.44;4870539;29;20028;-78
2023/11/27 09:09:49;;;;;;;1.75;0.93;;;;;;;-0.45;50.14;93772.03;4870632;29;20021;-79
2023/11/27 09:12:14;;;;;;;0.88;0.45;;;;;;;-0.40;47.74;93751.13;4870464;29;20021;-79
2023/11/27 09:14:40;;;;;;;1.08;0.30;;;;;;;-0.38;47.86;93788.34;4870503;29;20017;-78
2023/11/27 09:17:05;;;;;;;2.10;0.40;;;;;;;-0.36;47.12;93775.00;4870714;29;20044;-79
2023/11/27 09:19:31;;;;;;;1.05;0.50;;;;;;;-0.30;47.82;93790.50;4870640;29;20078;-78
2023/11/27 09:21:59;;;;;;;0.45;0.35;;;;;;;-0.25;48.91;93787.16;4870478;29;20308;-78
2023/11/27 09:24:24;;;;;;;1.52;0.60;;;;;;;-0.22;48.48;93776.97;4870277;29;20030;-78
2023/11/27 09:26:50;;;;;;;2.75;0.40;;;;;;;-0.33;48.05;93743.84;4870122;29;20100;-77
2023/11/27 09:29:16;;;;;;;0.95;0.50;;;;;;;-0.24;47.58;93765.97;4870051;29;20029;-77
2023/11/27 09:31:41;;;;;;;6.25;0.90;;;;;;;-0.34;50.12;93780.78;4870616;29;20311;-77
2023/11/27 09:34:07;;;;;;;2.38;0.40;;;;;;;-0.41;48.71;93778.34;4870495;29;20030;-77
2023/11/27 09:36:33;;;;;;;2.08;0.50;;;;;;;-0.35;47.89;93748.56;4869389;29;20021;-77
2023/11/27 09:38:58;;;;;;;0.47;0.30;;;;;;;-0.32;47.25;93755.16;4870409;29;20035;-77
2023/11/27 09:41:24;;;;;;;0.65;0.40;;;;;;;-0.19;46.08;93730.38;4870349;29;20215;-77
2023/11/27 09:43:49;;;;;;;2.03;0.60;;;;;;;-0.06;47.73;93737.78;4869933;29;20022;-78
2023/11/27 09:46:19;;;;;;;1.15;0.60;;;;;;;0.03;46.16;93719.81;4870513;29;20033;-78
2023/11/27 09:48:45;;;;;;;0.65;0.40;;;;;;;0.16;45.65;93740.34;4870208;29;20029;-78
2023/11/27 09:51:16;;;;;;;0.65;0.40;;;;;;;0.18;44.83;93748.75;4872895;29;20038;-78
2023/11/27 09:53:49;;;;;;;0.90;0.40;;;;;;;0.23;44.45;93724.41;4873982;29;20049;-77
2023/11/27 09:56:14;;;;;;;0.82;0.47;;;;;;;0.27;44.89;93728.91;4874022;29;20025;-77
2023/11/27 09:58:42;;;;;;;0.73;0.35;;;;;;;0.29;46.14;93750.41;4873936;29;20032;-77
2023/11/27 10:01:11;;;;;;;0.73;0.40;;;;;;;0.31;42.14;93748.31;4873784;29;20052;-77
2023/11/27 10:03:42;;;;;;;0.43;0.40;;;;;;;0.42;42.36;93764.91;4873717;29;20039;-78
2023/11/27 10:06:11;;;;;;;0.47;0.30;;;;;;;0.56;41.88;93728.56;4873829;29;20033;-77
2023/11/27 10:08:37;;;;;;;0.88;0.50;;;;;;;0.64;40.83;93745.66;4873670;29;20033;-77
2023/11/27 10:11:03;;;;;;;0.73;0.30;;;;;;;0.76;41.55;93759.38;4873662;29;20097;-78
2023/11/27 10:13:34;;;;;;;0.80;0.30;;;;;;;0.83;41.02;93733.66;4873488;29;20025;-78
2023/11/27 10:16:05;;;;;;;0.20;0.20;;;;;;;0.85;41.24;93736.84;4873855;29;20026;-78
2023/11/27 10:18:31;;;;;;;0.32;0.32;;;;;;;0.81;41.20;93746.25;4873437;29;20072;-76
2023/11/27 10:20:58;;;;;;;1.25;0.50;;;;;;;1.02;42.35;93776.03;4873255;29;20034;-77
2023/11/27 10:23:27;;;;;;;0.32;0.32;;;;;;;0.93;40.93;93725.84;4873171;29;20078;-77
2023/11/27 10:25:57;;;;;;;0.52;0.50;;;;;;;0.76;41.83;93728.66;4873235;29;20236;-76
2023/11/27 10:28:23;;;;;;;0.22;0.22;;;;;;;0.82;41.95;93742.59;4872896;29;20166;-75
2023/11/27 10:30:51;;;;;;;1.30;0.43;;;;;;;0.85;40.45;93726.34;4873134;29;20049;-80
2023/11/27 10:33:16;;;;;;;0.57;0.30;;;;;;;0.96;39.38;93712.22;4873753;29;20366;-81
2023/11/27 10:35:42;;;;;;;0.73;0.30;;;;;;;1.11;40.18;93721.22;4873328;29;20029;-82
2023/11/27 10:38:17;;;;;;;0.80;0.35;;;;;;;1.12;41.20;93712.28;4873536;29;20033;-80
2023/11/27 10:40:43;;;;;;;0.45;0.28;;;;;;;0.97;42.46;93728.75;4873402;29;20223;-80
2023/11/27 10:43:10;;;;;;;0.70;0.38;;;;;;;0.98;41.41;93725.88;4873593;29;20363;-80
2023/11/27 10:45:38;;;;;;;0.43;0.38;;;;;;;0.94;41.33;93748.44;4872737;29;20029;-81
2023/11/27 10:48:06;;;;;;;0.35;0.30;;;;;;;0.93;41.70;93732.94;4874220;29;20033;-80
2023/11/27 10:50:32;;;;;;;0.73;0.40;;;;;;;0.95;41.91;93731.63;4873544;29;20025;-80
2023/11/27 10:52:58;;;;;;;0.52;0.35;;;;;;;1.21;41.66;93729.13;4873471;29;20543;-81
2023/11/27 10:55:26;;;;;;;0.28;0.28;;;;;;;1.18;40.08;93708.63;4872439;29;20026;-78
2023/11/27 10:57:55;;;;;;;0.75;0.50;;;;;;;1.17;41.24;93735.94;4873199;29;20032;-81
2023/11/27 11:00:38;;;;;;;0.50;0.40;;;;;;;1.24;41.80;93696.31;4873417;29;20032;-81
2023/11/27 11:03:14;;;;;;;0.80;0.40;;;;;;;1.38;41.49;93726.28;4871359;29;20025;-81
2023/11/27 11:05:55;;;;;;;0.35;0.30;;;;;;;1.49;41.75;93709.50;4873064;29;20093;-81
2023/11/27 11:08:28;;;;;;;0.47;0.40;;;;;;;1.58;42.55;93726.31;4871917;29;20034;-82
2023/11/27 11:10:58;;;;;;;0.80;0.40;;;;;;;1.58;41.79;93721.06;4873361;29;20219;-82
2023/11/27 11:13:25;;;;;;;1.13;0.55;;;;;;;1.70;43.64;93720.81;4872867;29;20027;-82
2023/11/27 11:16:13;;;;;;;0.50;0.30;;;;;;;1.66;42.08;93711.09;4872513;29;20092;-81
2023/11/27 11:19:07;;;;;;;0.38;0.30;;;;;;;1.66;43.81;93719.78;4872678;29;20037;-79
2023/11/27 11:21:49;;;;;;;0.47;0.38;;;;;;;1.55;43.88;93723.44;4871623;29;20059;-81
2023/11/27 11:24:29;;;;;;;0.32;0.30;;;;;;;1.45;45.10;93728.69;4872573;29;20104;-80
2023/11/27 11:26:54;;;;;;;0.68;0.40;;;;;;;1.40;45.21;93716.28;4871551;29;20323;-80
2023/11/27 11:29:26;;;;;;;1.25;0.38;;;;;;;1.50;46.15;93711.06;4871229;29;20070;-80
2023/11/27 11:32:08;;;;;;;0.77;0.40;;;;;;;1.56;46.11;93710.03;4870765;29;20043;-82